sensor_id;sensor_type;location;lat;lon;timestamp;pressure;altitude;pressure_sealevel;temperature;humidity
68986;BME280;56035;37.534;-122.308;2023-04-26T00:00:30;101016.63;;;22.87;46.25
68986;BME280;56035;37.534;-122.308;2023-04-26T00:02:57;101014.44;;;22.84;46.59
68986;BME280;56035;37.534;-122.308;2023-04-26T00:05:25;101015.91;;;22.81;45.83
68986;BME280;56035;37.534;-122.308;2023-04-26T00:07:51;101005.31;;;22.78;44.96
68986;BME280;56035;37.534;-122.308;2023-04-26T00:10:17;101013.88;;;22.73;45.78
68986;BME280;56035;37.534;-122.308;2023-04-26T00:12:44;101018.44;;;22.69;44.13
68986;BME280;56035;37.534;-122.308;2023-04-26T00:15:10;101022.75;;;22.66;44.96
68986;BME280;56035;37.534;-122.308;2023-04-26T00:17:36;101026.63;;;22.57;42.63
68986;BME280;56035;37.534;-122.308;2023-04-26T00:20:03;101024.94;;;22.56;42.72
68986;BME280;56035;37.534;-122.308;2023-04-26T00:22:32;101017.91;;;22.44;42.70
68986;BME280;56035;37.534;-122.308;2023-04-26T00:24:58;101027.28;;;22.40;42.97
68986;BME280;56035;37.534;-122.308;2023-04-26T00:27:24;101021.88;;;22.30;43.88
68986;BME280;56035;37.534;-122.308;2023-04-26T00:29:51;101019.22;;;22.25;42.99
68986;BME280;56035;37.534;-122.308;2023-04-26T00:32:17;101022.09;;;22.19;42.91
68986;BME280;56035;37.534;-122.308;2023-04-26T00:34:43;101023.34;;;22.13;42.55
68986;BME280;56035;37.534;-122.308;2023-04-26T00:37:10;101022.72;;;22.03;41.65
68986;BME280;56035;37.534;-122.308;2023-04-26T00:39:36;101026.38;;;21.89;41.66
68986;BME280;56035;37.534;-122.308;2023-04-26T00:42:02;101024.19;;;21.86;43.00
68986;BME280;56035;37.534;-122.308;2023-04-26T00:44:29;101032.00;;;21.76;42.07
68986;BME280;56035;37.534;-122.308;2023-04-26T00:46:55;101034.16;;;21.65;42.68
68986;BME280;56035;37.534;-122.308;2023-04-26T00:49:23;101030.72;;;21.54;43.13
68986;BME280;56035;37.534;-122.308;2023-04-26T00:51:51;101031.53;;;21.41;42.72
68986;BME280;56035;37.534;-122.308;2023-04-26T00:54:19;101029.94;;;21.35;44.42
68986;BME280;56035;37.534;-122.308;2023-04-26T00:56:46;101036.31;;;21.21;43.47
68986;BME280;56035;37.534;-122.308;2023-04-26T00:59:16;101032.53;;;21.12;44.01
68986;BME280;56035;37.534;-122.308;2023-04-26T01:01:43;101037.09;;;21.08;44.60
68986;BME280;56035;37.534;-122.308;2023-04-26T01:04:09;101042.28;;;21.01;44.71
68986;BME280;56035;37.534;-122.308;2023-04-26T01:06:38;101036.41;;;20.84;44.80
68986;BME280;56035;37.534;-122.308;2023-04-26T01:09:06;101045.25;;;20.72;44.43
68986;BME280;56035;37.534;-122.308;2023-04-26T01:11:35;101050.19;;;20.61;44.65
68986;BME280;56035;37.534;-122.308;2023-04-26T01:14:03;101050.34;;;20.51;45.61
68986;BME280;56035;37.534;-122.308;2023-04-26T01:16:30;101054.59;;;20.43;45.47
68986;BME280;56035;37.534;-122.308;2023-04-26T01:21:43;101047.91;;;20.20;44.87
68986;BME280;56035;37.534;-122.308;2023-04-26T01:24:10;101045.56;;;20.08;45.32
68986;BME280;56035;37.534;-122.308;2023-04-26T01:26:40;101051.53;;;20.02;45.13
68986;BME280;56035;37.534;-122.308;2023-04-26T01:29:17;101055.31;;;19.87;45.03
68986;BME280;56035;37.534;-122.308;2023-04-26T01:31:45;101059.66;;;19.74;45.99
68986;BME280;56035;37.534;-122.308;2023-04-26T01:34:11;101053.31;;;19.69;46.18
68986;BME280;56035;37.534;-122.308;2023-04-26T01:36:38;101059.25;;;19.57;46.38
68986;BME280;56035;37.534;-122.308;2023-04-26T01:39:04;101052.66;;;19.48;46.65
68986;BME280;56035;37.534;-122.308;2023-04-26T01:41:32;101054.41;;;19.38;45.81
68986;BME280;56035;37.534;-122.308;2023-04-26T01:43:58;101055.63;;;19.27;46.93
68986;BME280;56035;37.534;-122.308;2023-04-26T01:46:24;101065.19;;;19.21;46.89
68986;BME280;56035;37.534;-122.308;2023-04-26T01:48:51;101063.91;;;19.08;46.95
68986;BME280;56035;37.534;-122.308;2023-04-26T01:51:19;101058.41;;;18.98;47.38
68986;BME280;56035;37.534;-122.308;2023-04-26T01:53:46;101050.97;;;18.83;47.81
68986;BME280;56035;37.534;-122.308;2023-04-26T01:56:12;101054.66;;;18.74;48.91
68986;BME280;56035;37.534;-122.308;2023-04-26T01:58:38;101066.44;;;18.60;48.10
68986;BME280;56035;37.534;-122.308;2023-04-26T02:01:06;101062.63;;;18.51;49.10
68986;BME280;56035;37.534;-122.308;2023-04-26T02:03:33;101068.78;;;18.43;48.44
68986;BME280;56035;37.534;-122.308;2023-04-26T02:05:59;101064.09;;;18.33;50.09
68986;BME280;56035;37.534;-122.308;2023-04-26T02:08:25;101065.84;;;18.19;49.31
68986;BME280;56035;37.534;-122.308;2023-04-26T02:10:52;101065.91;;;18.04;49.87
68986;BME280;56035;37.534;-122.308;2023-04-26T02:13:18;101065.94;;;17.88;50.10
68986;BME280;56035;37.534;-122.308;2023-04-26T02:15:48;101078.25;;;17.77;50.10
68986;BME280;56035;37.534;-122.308;2023-04-26T02:18:15;101070.72;;;17.67;50.64
68986;BME280;56035;37.534;-122.308;2023-04-26T02:20:43;101071.56;;;17.58;51.27
68986;BME280;56035;37.534;-122.308;2023-04-26T02:23:11;101082.72;;;17.42;51.87
68986;BME280;56035;37.534;-122.308;2023-04-26T02:25:38;101069.09;;;17.30;52.04
68986;BME280;56035;37.534;-122.308;2023-04-26T02:28:05;101076.63;;;17.20;52.86
68986;BME280;56035;37.534;-122.308;2023-04-26T02:30:31;101081.63;;;17.13;53.26
68986;BME280;56035;37.534;-122.308;2023-04-26T02:32:58;101089.16;;;17.02;54.03
68986;BME280;56035;37.534;-122.308;2023-04-26T02:35:24;101093.88;;;16.91;55.71
68986;BME280;56035;37.534;-122.308;2023-04-26T02:37:51;101102.19;;;16.76;56.07
68986;BME280;56035;37.534;-122.308;2023-04-26T02:40:18;101093.78;;;16.66;56.59
68986;BME280;56035;37.534;-122.308;2023-04-26T02:42:44;101098.22;;;16.51;58.40
68986;BME280;56035;37.534;-122.308;2023-04-26T02:45:10;101094.56;;;16.35;59.00
68986;BME280;56035;37.534;-122.308;2023-04-26T02:47:56;101100.63;;;16.22;60.19
68986;BME280;56035;37.534;-122.308;2023-04-26T02:50:23;101110.84;;;16.11;61.99
68986;BME280;56035;37.534;-122.308;2023-04-26T02:52:49;101113.56;;;16.01;62.66
68986;BME280;56035;37.534;-122.308;2023-04-26T02:55:15;101114.09;;;15.93;67.13
68986;BME280;56035;37.534;-122.308;2023-04-26T02:57:42;101122.84;;;15.75;67.49
68986;BME280;56035;37.534;-122.308;2023-04-26T03:00:08;101119.41;;;15.62;69.96
68986;BME280;56035;37.534;-122.308;2023-04-26T03:02:36;101112.13;;;15.51;70.91
68986;BME280;56035;37.534;-122.308;2023-04-26T03:05:02;101124.56;;;15.43;70.77
68986;BME280;56035;37.534;-122.308;2023-04-26T03:07:29;101124.16;;;15.30;71.78
68986;BME280;56035;37.534;-122.308;2023-04-26T03:09:56;101124.66;;;15.21;72.69
68986;BME280;56035;37.534;-122.308;2023-04-26T03:12:22;101134.25;;;15.09;75.37
68986;BME280;56035;37.534;-122.308;2023-04-26T03:14:48;101142.78;;;15.02;76.68
68986;BME280;56035;37.534;-122.308;2023-04-26T03:17:15;101147.13;;;14.93;76.45
68986;BME280;56035;37.534;-122.308;2023-04-26T03:19:41;101143.66;;;14.81;78.66
68986;BME280;56035;37.534;-122.308;2023-04-26T03:22:07;101133.06;;;14.72;80.42
68986;BME280;56035;37.534;-122.308;2023-04-26T03:24:33;101136.78;;;14.61;81.24
68986;BME280;56035;37.534;-122.308;2023-04-26T03:27:00;101137.50;;;14.51;83.73
68986;BME280;56035;37.534;-122.308;2023-04-26T03:29:26;101132.09;;;14.40;84.55
68986;BME280;56035;37.534;-122.308;2023-04-26T03:31:52;101135.88;;;14.34;84.69
68986;BME280;56035;37.534;-122.308;2023-04-26T03:34:18;101139.38;;;14.24;86.53
68986;BME280;56035;37.534;-122.308;2023-04-26T03:36:45;101137.31;;;14.14;85.54
68986;BME280;56035;37.534;-122.308;2023-04-26T03:39:12;101149.41;;;14.08;85.32
68986;BME280;56035;37.534;-122.308;2023-04-26T03:41:38;101139.28;;;13.97;86.99
68986;BME280;56035;37.534;-122.308;2023-04-26T03:44:05;101140.81;;;13.88;89.65
68986;BME280;56035;37.534;-122.308;2023-04-26T03:46:31;101152.59;;;13.78;90.44
68986;BME280;56035;37.534;-122.308;2023-04-26T03:48:58;101151.59;;;13.67;90.88
68986;BME280;56035;37.534;-122.308;2023-04-26T03:51:24;101153.69;;;13.60;89.96
68986;BME280;56035;37.534;-122.308;2023-04-26T03:53:52;101156.63;;;13.53;89.76
68986;BME280;56035;37.534;-122.308;2023-04-26T03:56:18;101163.75;;;13.49;90.17
68986;BME280;56035;37.534;-122.308;2023-04-26T03:58:45;101168.03;;;13.40;90.26
68986;BME280;56035;37.534;-122.308;2023-04-26T04:01:11;101168.19;;;13.33;90.95
68986;BME280;56035;37.534;-122.308;2023-04-26T04:03:38;101173.69;;;13.17;90.93
68986;BME280;56035;37.534;-122.308;2023-04-26T04:06:04;101171.66;;;13.12;91.02
68986;BME280;56035;37.534;-122.308;2023-04-26T04:08:31;101169.56;;;13.02;93.41
68986;BME280;56035;37.534;-122.308;2023-04-26T04:10:57;101175.25;;;12.96;94.97
68986;BME280;56035;37.534;-122.308;2023-04-26T04:13:23;101177.75;;;12.97;100.00
68986;BME280;56035;37.534;-122.308;2023-04-26T04:15:50;101172.38;;;12.91;100.00
68986;BME280;56035;37.534;-122.308;2023-04-26T04:18:16;101180.66;;;12.91;100.00
68986;BME280;56035;37.534;-122.308;2023-04-26T04:20:42;101180.94;;;12.89;100.00
68986;BME280;56035;37.534;-122.308;2023-04-26T04:23:09;101184.91;;;12.81;100.00
68986;BME280;56035;37.534;-122.308;2023-04-26T04:25:35;101188.69;;;12.75;100.00
68986;BME280;56035;37.534;-122.308;2023-04-26T04:28:02;101189.06;;;12.67;100.00
68986;BME280;56035;37.534;-122.308;2023-04-26T04:30:28;101197.63;;;12.65;100.00
68986;BME280;56035;37.534;-122.308;2023-04-26T04:32:55;101191.50;;;12.52;100.00
68986;BME280;56035;37.534;-122.308;2023-04-26T04:35:24;101194.41;;;12.45;100.00
68986;BME280;56035;37.534;-122.308;2023-04-26T04:37:56;101197.78;;;12.35;100.00
68986;BME280;56035;37.534;-122.308;2023-04-26T04:40:23;101203.56;;;12.22;100.00
68986;BME280;56035;37.534;-122.308;2023-04-26T04:42:50;101205.88;;;12.13;100.00
68986;BME280;56035;37.534;-122.308;2023-04-26T04:45:19;101210.81;;;12.11;100.00
68986;BME280;56035;37.534;-122.308;2023-04-26T04:47:46;101217.28;;;12.05;100.00
68986;BME280;56035;37.534;-122.308;2023-04-26T04:50:12;101215.13;;;11.95;100.00
68986;BME280;56035;37.534;-122.308;2023-04-26T04:52:39;101218.47;;;11.86;100.00
68986;BME280;56035;37.534;-122.308;2023-04-26T04:55:06;101218.00;;;11.77;100.00
68986;BME280;56035;37.534;-122.308;2023-04-26T04:57:32;101216.66;;;11.68;100.00
68986;BME280;56035;37.534;-122.308;2023-04-26T04:59:58;101229.34;;;11.57;100.00
68986;BME280;56035;37.534;-122.308;2023-04-26T05:02:31;101227.16;;;11.47;100.00
68986;BME280;56035;37.534;-122.308;2023-04-26T05:04:57;101230.88;;;11.41;100.00
68986;BME280;56035;37.534;-122.308;2023-04-26T05:07:26;101230.38;;;11.33;100.00
68986;BME280;56035;37.534;-122.308;2023-04-26T05:09:52;101222.44;;;11.24;100.00
68986;BME280;56035;37.534;-122.308;2023-04-26T05:12:18;101232.72;;;11.17;100.00
68986;BME280;56035;37.534;-122.308;2023-04-26T05:14:44;101223.09;;;11.08;100.00
68986;BME280;56035;37.534;-122.308;2023-04-26T05:17:10;101224.72;;;10.97;100.00
68986;BME280;56035;37.534;-122.308;2023-04-26T05:19:37;101222.69;;;10.93;100.00
68986;BME280;56035;37.534;-122.308;2023-04-26T05:22:03;101224.91;;;10.84;100.00
68986;BME280;56035;37.534;-122.308;2023-04-26T05:24:29;101224.38;;;10.75;100.00
68986;BME280;56035;37.534;-122.308;2023-04-26T05:26:57;101221.13;;;10.67;100.00
68986;BME280;56035;37.534;-122.308;2023-04-26T05:29:30;101219.75;;;10.58;100.00
68986;BME280;56035;37.534;-122.308;2023-04-26T05:31:56;101217.91;;;10.51;100.00
68986;BME280;56035;37.534;-122.308;2023-04-26T05:34:23;101218.84;;;10.45;100.00
68986;BME280;56035;37.534;-122.308;2023-04-26T05:36:50;101228.47;;;10.36;100.00
68986;BME280;56035;37.534;-122.308;2023-04-26T05:39:16;101230.47;;;10.29;100.00
68986;BME280;56035;37.534;-122.308;2023-04-26T05:41:45;101240.06;;;10.20;100.00
68986;BME280;56035;37.534;-122.308;2023-04-26T05:44:12;101240.38;;;10.12;100.00
68986;BME280;56035;37.534;-122.308;2023-04-26T05:46:39;101239.59;;;10.04;100.00
68986;BME280;56035;37.534;-122.308;2023-04-26T05:49:06;101242.56;;;10.03;100.00
68986;BME280;56035;37.534;-122.308;2023-04-26T05:51:32;101242.63;;;9.96;100.00
68986;BME280;56035;37.534;-122.308;2023-04-26T05:53:58;101248.00;;;9.91;100.00
68986;BME280;56035;37.534;-122.308;2023-04-26T05:56:25;101250.19;;;9.82;100.00
68986;BME280;56035;37.534;-122.308;2023-04-26T05:58:51;101245.56;;;9.76;100.00
68986;BME280;56035;37.534;-122.308;2023-04-26T06:01:18;101243.50;;;9.72;100.00
68986;BME280;56035;37.534;-122.308;2023-04-26T06:03:45;101239.72;;;9.66;100.00
68986;BME280;56035;37.534;-122.308;2023-04-26T06:06:11;101241.03;;;9.64;100.00
68986;BME280;56035;37.534;-122.308;2023-04-26T06:08:37;101242.16;;;9.56;100.00
68986;BME280;56035;37.534;-122.308;2023-04-26T06:11:04;101238.38;;;9.50;100.00
68986;BME280;56035;37.534;-122.308;2023-04-26T06:13:30;101246.47;;;9.45;100.00
68986;BME280;56035;37.534;-122.308;2023-04-26T06:15:58;101247.34;;;9.39;100.00
68986;BME280;56035;37.534;-122.308;2023-04-26T06:18:24;101236.81;;;9.36;100.00
68986;BME280;56035;37.534;-122.308;2023-04-26T06:20:51;101242.94;;;9.31;100.00
68986;BME280;56035;37.534;-122.308;2023-04-26T06:23:17;101239.81;;;9.28;100.00
68986;BME280;56035;37.534;-122.308;2023-04-26T06:25:43;101240.03;;;9.26;100.00
68986;BME280;56035;37.534;-122.308;2023-04-26T06:28:13;101241.75;;;9.21;100.00
68986;BME280;56035;37.534;-122.308;2023-04-26T06:30:40;101234.41;;;9.14;100.00
68986;BME280;56035;37.534;-122.308;2023-04-26T06:33:06;101234.00;;;9.11;100.00
68986;BME280;56035;37.534;-122.308;2023-04-26T06:35:32;101239.13;;;9.01;100.00
68986;BME280;56035;37.534;-122.308;2023-04-26T06:37:58;101238.50;;;8.99;100.00
68986;BME280;56035;37.534;-122.308;2023-04-26T06:40:24;101242.56;;;8.96;100.00
68986;BME280;56035;37.534;-122.308;2023-04-26T06:42:50;101249.75;;;8.90;100.00
68986;BME280;56035;37.534;-122.308;2023-04-26T06:45:17;101244.69;;;8.87;100.00
68986;BME280;56035;37.534;-122.308;2023-04-26T06:47:43;101254.47;;;8.83;100.00
68986;BME280;56035;37.534;-122.308;2023-04-26T06:50:10;101246.84;;;8.79;100.00
68986;BME280;56035;37.534;-122.308;2023-04-26T06:52:36;101243.94;;;8.74;100.00
68986;BME280;56035;37.534;-122.308;2023-04-26T06:55:03;101244.81;;;8.67;100.00
68986;BME280;56035;37.534;-122.308;2023-04-26T06:57:30;101252.63;;;8.64;100.00
68986;BME280;56035;37.534;-122.308;2023-04-26T06:59:56;101252.44;;;8.59;100.00
68986;BME280;56035;37.534;-122.308;2023-04-26T07:02:22;101252.84;;;8.56;100.00
68986;BME280;56035;37.534;-122.308;2023-04-26T07:04:49;101260.69;;;8.52;100.00
68986;BME280;56035;37.534;-122.308;2023-04-26T07:07:15;101253.13;;;8.48;100.00
68986;BME280;56035;37.534;-122.308;2023-04-26T07:09:42;101248.25;;;8.43;100.00
68986;BME280;56035;37.534;-122.308;2023-04-26T07:12:12;101248.47;;;8.35;100.00
68986;BME280;56035;37.534;-122.308;2023-04-26T07:14:38;101252.28;;;8.34;100.00
68986;BME280;56035;37.534;-122.308;2023-04-26T07:17:06;101257.34;;;8.30;100.00
68986;BME280;56035;37.534;-122.308;2023-04-26T07:19:32;101248.25;;;8.30;100.00
68986;BME280;56035;37.534;-122.308;2023-04-26T07:21:59;101248.69;;;8.27;100.00
68986;BME280;56035;37.534;-122.308;2023-04-26T07:24:26;101251.03;;;8.23;100.00
68986;BME280;56035;37.534;-122.308;2023-04-26T07:26:52;101247.03;;;8.19;100.00
68986;BME280;56035;37.534;-122.308;2023-04-26T07:29:18;101264.75;;;8.16;100.00
68986;BME280;56035;37.534;-122.308;2023-04-26T07:31:45;101265.00;;;8.15;100.00
68986;BME280;56035;37.534;-122.308;2023-04-26T07:34:11;101255.28;;;8.06;100.00
68986;BME280;56035;37.534;-122.308;2023-04-26T07:36:37;101267.09;;;8.06;100.00
68986;BME280;56035;37.534;-122.308;2023-04-26T07:39:04;101256.97;;;8.00;100.00
68986;BME280;56035;37.534;-122.308;2023-04-26T07:41:31;101258.66;;;7.94;100.00
68986;BME280;56035;37.534;-122.308;2023-04-26T07:43:57;101255.50;;;7.91;100.00
68986;BME280;56035;37.534;-122.308;2023-04-26T07:46:23;101254.06;;;7.88;100.00
68986;BME280;56035;37.534;-122.308;2023-04-26T07:48:50;101254.91;;;7.89;100.00
68986;BME280;56035;37.534;-122.308;2023-04-26T07:51:16;101252.78;;;7.84;100.00
68986;BME280;56035;37.534;-122.308;2023-04-26T07:53:42;101250.25;;;7.83;100.00
68986;BME280;56035;37.534;-122.308;2023-04-26T07:56:09;101254.25;;;7.80;100.00
68986;BME280;56035;37.534;-122.308;2023-04-26T07:58:38;101251.31;;;7.75;100.00
68986;BME280;56035;37.534;-122.308;2023-04-26T08:01:04;101257.41;;;7.70;100.00
68986;BME280;56035;37.534;-122.308;2023-04-26T08:03:31;101256.16;;;7.66;100.00
68986;BME280;56035;37.534;-122.308;2023-04-26T08:05:57;101246.69;;;7.62;100.00
68986;BME280;56035;37.534;-122.308;2023-04-26T08:08:25;101259.97;;;7.59;100.00
68986;BME280;56035;37.534;-122.308;2023-04-26T08:10:51;101257.84;;;7.54;100.00
68986;BME280;56035;37.534;-122.308;2023-04-26T08:13:18;101257.22;;;7.52;100.00
68986;BME280;56035;37.534;-122.308;2023-04-26T08:15:44;101259.50;;;7.48;100.00
68986;BME280;56035;37.534;-122.308;2023-04-26T08:18:11;101256.78;;;7.42;100.00
68986;BME280;56035;37.534;-122.308;2023-04-26T08:20:38;101255.31;;;7.39;100.00
68986;BME280;56035;37.534;-122.308;2023-04-26T08:23:04;101257.19;;;7.39;100.00
68986;BME280;56035;37.534;-122.308;2023-04-26T08:25:30;101253.41;;;7.33;100.00
68986;BME280;56035;37.534;-122.308;2023-04-26T08:27:59;101250.44;;;7.35;100.00
68986;BME280;56035;37.534;-122.308;2023-04-26T08:30:26;101246.84;;;7.34;100.00
68986;BME280;56035;37.534;-122.308;2023-04-26T08:32:52;101251.69;;;7.32;100.00
68986;BME280;56035;37.534;-122.308;2023-04-26T08:35:19;101252.34;;;7.27;100.00
68986;BME280;56035;37.534;-122.308;2023-04-26T08:37:46;101256.13;;;7.26;100.00
68986;BME280;56035;37.534;-122.308;2023-04-26T08:40:12;101257.16;;;7.25;100.00
68986;BME280;56035;37.534;-122.308;2023-04-26T08:42:40;101247.06;;;7.19;100.00
68986;BME280;56035;37.534;-122.308;2023-04-26T08:45:09;101251.25;;;7.15;100.00
68986;BME280;56035;37.534;-122.308;2023-04-26T08:48:03;101251.91;;;7.17;100.00
68986;BME280;56035;37.534;-122.308;2023-04-26T08:50:32;101251.06;;;7.17;100.00
68986;BME280;56035;37.534;-122.308;2023-04-26T08:52:59;101249.16;;;7.17;100.00
68986;BME280;56035;37.534;-122.308;2023-04-26T08:55:26;101244.09;;;7.14;100.00
68986;BME280;56035;37.534;-122.308;2023-04-26T08:57:52;101239.03;;;7.11;100.00
68986;BME280;56035;37.534;-122.308;2023-04-26T09:00:19;101236.28;;;7.11;100.00
68986;BME280;56035;37.534;-122.308;2023-04-26T09:02:49;101232.91;;;7.09;100.00
68986;BME280;56035;37.534;-122.308;2023-04-26T09:05:16;101235.22;;;7.06;100.00
68986;BME280;56035;37.534;-122.308;2023-04-26T09:07:49;101230.13;;;7.02;100.00
68986;BME280;56035;37.534;-122.308;2023-04-26T09:10:19;101226.97;;;6.99;100.00
68986;BME280;56035;37.534;-122.308;2023-04-26T09:12:53;101226.13;;;6.92;100.00
68986;BME280;56035;37.534;-122.308;2023-04-26T09:15:21;101230.09;;;6.89;100.00
68986;BME280;56035;37.534;-122.308;2023-04-26T09:17:48;101224.84;;;6.88;100.00
68986;BME280;56035;37.534;-122.308;2023-04-26T09:20:27;101222.31;;;6.86;100.00
68986;BME280;56035;37.534;-122.308;2023-04-26T09:23:04;101225.69;;;6.82;100.00
68986;BME280;56035;37.534;-122.308;2023-04-26T09:25:32;101230.06;;;6.76;100.00
68986;BME280;56035;37.534;-122.308;2023-04-26T09:27:59;101215.94;;;6.72;100.00
68986;BME280;56035;37.534;-122.308;2023-04-26T09:30:26;101230.69;;;6.71;100.00
68986;BME280;56035;37.534;-122.308;2023-04-26T09:33:03;101231.53;;;6.72;100.00
68986;BME280;56035;37.534;-122.308;2023-04-26T09:35:35;101227.31;;;6.69;100.00
68986;BME280;56035;37.534;-122.308;2023-04-26T09:38:10;101231.50;;;6.65;100.00
68986;BME280;56035;37.534;-122.308;2023-04-26T09:40:44;101232.97;;;6.61;100.00
68986;BME280;56035;37.534;-122.308;2023-04-26T09:43:19;101238.03;;;6.57;100.00
68986;BME280;56035;37.534;-122.308;2023-04-26T09:45:46;101241.59;;;6.58;100.00
68986;BME280;56035;37.534;-122.308;2023-04-26T09:48:28;101241.56;;;6.51;100.00
68986;BME280;56035;37.534;-122.308;2023-04-26T09:51:08;101240.09;;;6.49;100.00
68986;BME280;56035;37.534;-122.308;2023-04-26T09:53:46;101235.00;;;6.46;100.00
68986;BME280;56035;37.534;-122.308;2023-04-26T09:56:17;101238.81;;;6.45;100.00
68986;BME280;56035;37.534;-122.308;2023-04-26T10:01:18;101239.00;;;6.43;100.00
68986;BME280;56035;37.534;-122.308;2023-04-26T10:03:45;101241.28;;;6.40;100.00
68986;BME280;56035;37.534;-122.308;2023-04-26T10:06:12;101236.22;;;6.37;100.00
68986;BME280;56035;37.534;-122.308;2023-04-26T10:08:38;101236.22;;;6.37;100.00
68986;BME280;56035;37.534;-122.308;2023-04-26T10:11:05;101232.88;;;6.35;100.00
68986;BME280;56035;37.534;-122.308;2023-04-26T10:13:36;101234.13;;;6.32;100.00
68986;BME280;56035;37.534;-122.308;2023-04-26T10:16:03;101237.88;;;6.31;100.00
68986;BME280;56035;37.534;-122.308;2023-04-26T10:18:31;101233.28;;;6.31;100.00
68986;BME280;56035;37.534;-122.308;2023-04-26T10:21:25;101233.66;;;6.28;100.00
68986;BME280;56035;37.534;-122.308;2023-04-26T10:23:52;101228.19;;;6.28;100.00
68986;BME280;56035;37.534;-122.308;2023-04-26T10:29:22;101220.97;;;6.21;100.00
68986;BME280;56035;37.534;-122.308;2023-04-26T10:32:04;101232.34;;;6.18;100.00
68986;BME280;56035;37.534;-122.308;2023-04-26T10:34:36;101229.16;;;6.14;100.00
68986;BME280;56035;37.534;-122.308;2023-04-26T10:37:15;101231.06;;;6.14;100.00
68986;BME280;56035;37.534;-122.308;2023-04-26T10:39:46;101236.53;;;6.14;100.00
68986;BME280;56035;37.534;-122.308;2023-04-26T10:44:56;101237.31;;;6.07;100.00
68986;BME280;56035;37.534;-122.308;2023-04-26T10:47:30;101239.44;;;6.05;100.00
68986;BME280;56035;37.534;-122.308;2023-04-26T10:50:09;101240.66;;;6.03;100.00
68986;BME280;56035;37.534;-122.308;2023-04-26T10:55:48;101236.25;;;6.02;100.00
68986;BME280;56035;37.534;-122.308;2023-04-26T11:03:29;101248.84;;;5.96;100.00
68986;BME280;56035;37.534;-122.308;2023-04-26T11:05:56;101242.06;;;5.92;100.00
68986;BME280;56035;37.534;-122.308;2023-04-26T11:08:30;101244.97;;;5.91;100.00
68986;BME280;56035;37.534;-122.308;2023-04-26T11:11:04;101242.22;;;5.91;100.00
68986;BME280;56035;37.534;-122.308;2023-04-26T11:13:35;101245.19;;;5.89;100.00
68986;BME280;56035;37.534;-122.308;2023-04-26T11:16:07;101244.75;;;5.85;100.00
68986;BME280;56035;37.534;-122.308;2023-04-26T11:18:36;101246.16;;;5.81;100.00
68986;BME280;56035;37.534;-122.308;2023-04-26T11:21:04;101244.69;;;5.79;100.00
68986;BME280;56035;37.534;-122.308;2023-04-26T11:23:31;101249.06;;;5.73;100.00
68986;BME280;56035;37.534;-122.308;2023-04-26T11:25:58;101246.31;;;5.73;100.00
68986;BME280;56035;37.534;-122.308;2023-04-26T11:28:27;101248.84;;;5.75;100.00
68986;BME280;56035;37.534;-122.308;2023-04-26T11:30:53;101245.09;;;5.76;100.00
68986;BME280;56035;37.534;-122.308;2023-04-26T11:33:20;101246.31;;;5.73;100.00
68986;BME280;56035;37.534;-122.308;2023-04-26T11:35:56;101250.94;;;5.73;100.00
68986;BME280;56035;37.534;-122.308;2023-04-26T11:38:24;101246.28;;;5.67;100.00
68986;BME280;56035;37.534;-122.308;2023-04-26T11:41:01;101251.91;;;5.65;100.00
68986;BME280;56035;37.534;-122.308;2023-04-26T11:43:34;101243.31;;;5.68;100.00
68986;BME280;56035;37.534;-122.308;2023-04-26T11:46:01;101245.66;;;5.71;100.00
68986;BME280;56035;37.534;-122.308;2023-04-26T11:48:29;101246.31;;;5.73;100.00
68986;BME280;56035;37.534;-122.308;2023-04-26T11:50:56;101252.41;;;5.75;100.00
68986;BME280;56035;37.534;-122.308;2023-04-26T11:53:24;101242.97;;;5.78;100.00
68986;BME280;56035;37.534;-122.308;2023-04-26T11:55:59;101243.19;;;5.76;100.00
68986;BME280;56035;37.534;-122.308;2023-04-26T11:58:26;101250.56;;;5.76;100.00
68986;BME280;56035;37.534;-122.308;2023-04-26T12:00:58;101251.41;;;5.76;100.00
68986;BME280;56035;37.534;-122.308;2023-04-26T12:03:34;101245.09;;;5.76;100.00
68986;BME280;56035;37.534;-122.308;2023-04-26T12:06:03;101245.94;;;5.76;100.00
68986;BME280;56035;37.534;-122.308;2023-04-26T12:08:31;101249.91;;;5.74;100.00
68986;BME280;56035;37.534;-122.308;2023-04-26T12:10:59;101247.38;;;5.72;100.00
68986;BME280;56035;37.534;-122.308;2023-04-26T12:13:27;101256.88;;;5.76;100.00
68986;BME280;56035;37.534;-122.308;2023-04-26T12:15:54;101248.66;;;5.76;100.00
68986;BME280;56035;37.534;-122.308;2023-04-26T12:18:21;101252.41;;;5.75;100.00
68986;BME280;56035;37.534;-122.308;2023-04-26T12:20:48;101250.16;;;5.79;100.00
68986;BME280;56035;37.534;-122.308;2023-04-26T12:23:16;101257.69;;;5.77;100.00
68986;BME280;56035;37.534;-122.308;2023-04-26T12:25:56;101256.03;;;5.76;100.00
68986;BME280;56035;37.534;-122.308;2023-04-26T12:28:26;101256.03;;;5.76;100.00
68986;BME280;56035;37.534;-122.308;2023-04-26T12:30:52;101262.72;;;5.73;100.00
68986;BME280;56035;37.534;-122.308;2023-04-26T12:33:19;101260.00;;;5.73;100.00
68986;BME280;56035;37.534;-122.308;2023-04-26T12:35:48;101254.91;;;5.70;100.00
68986;BME280;56035;37.534;-122.308;2023-04-26T12:38:15;101253.25;;;5.69;100.00
68986;BME280;56035;37.534;-122.308;2023-04-26T12:40:42;101257.00;;;5.68;100.00